Pleasant Grove, California
Current Conditions -  °F | °C
As of 4:15 PM on Saturday 20 Dec 2014 (Local Time) from KLHM Reporting Station
Overcast Overcast  
Wind Chill: 55°   Ceiling: 6000
Heat Index: 55°   Visibility: 10mi
Dew Point: 50°   Wind: 9mph
Humidity: 82%   Direction: 140°SE
Pressure: 30.2"   Gusts: NA
Location:  38.82°N, 121.48°W
Report Text: KLHM 210015Z AUTO 14008KT 10SM SCT047 OVC060 13/10 A3020 RMK AO1
Loading
Personal Weather Stations






























Interactive Weather Map New forecast layout! Learn more

10-Day Weather Forecast

Advertisements
Track Severe Weather on mobile